createdAt,value
2019-05-17T00:00:39.087Z,81.22
2019-05-17T00:03:07.004Z,81.46
2019-05-17T00:05:37.292Z,81.63
2019-05-17T00:08:04.082Z,81.36
2019-05-17T00:10:30.969Z,82.47
2019-05-17T00:12:57.552Z,82.46
2019-05-17T00:15:24.162Z,82.25
2019-05-17T00:17:52.207Z,82.27
2019-05-17T00:20:18.987Z,81.92
2019-05-17T00:22:48.852Z,80.65
2019-05-17T00:25:16.804Z,81.74
2019-05-17T00:27:43.747Z,81.90
2019-05-17T00:30:11.530Z,81.71
2019-05-17T00:32:39.424Z,81.99
2019-05-17T00:35:08.344Z,81.93
2019-05-17T00:37:37.365Z,82.00
2019-05-17T00:40:07.414Z,81.52
2019-05-17T00:42:34.357Z,81.28
2019-05-17T00:45:01.538Z,81.50
2019-05-17T00:47:28.205Z,82.33
2019-05-17T00:49:56.984Z,82.50
2019-05-17T00:52:24.043Z,83.03
2019-05-17T00:54:51.046Z,82.49
2019-05-17T00:57:18.637Z,82.36
2019-05-17T00:59:47.380Z,81.58
2019-05-17T01:03:10.402Z,81.60
2019-05-17T01:05:37.201Z,81.76
2019-05-17T01:08:06.919Z,82.41
2019-05-17T01:10:33.189Z,82.78
2019-05-17T01:13:00.343Z,82.24
2019-05-17T01:15:28.079Z,83.29
2019-05-17T01:17:56.289Z,82.62
2019-05-17T01:20:23.435Z,81.52
2019-05-17T01:22:52.890Z,81.59
2019-05-17T01:25:20.114Z,81.80
2019-05-17T01:27:47.619Z,81.67
2019-05-17T01:30:18.435Z,81.60
2019-05-17T01:32:46.425Z,80.87
2019-05-17T01:35:16.488Z,80.80
2019-05-17T01:37:42.825Z,80.01
2019-05-17T01:40:10.449Z,79.84
2019-05-17T01:42:39.334Z,80.91
2019-05-17T01:45:08.212Z,80.94
2019-05-17T01:47:36.879Z,81.34
2019-05-17T01:50:08.026Z,81.11
2019-05-17T01:52:36.764Z,81.13
2019-05-17T01:55:06.680Z,81.61
2019-05-17T01:57:33.891Z,80.83
2019-05-17T02:00:00.684Z,80.90
2019-05-17T02:02:29.449Z,79.59
2019-05-17T02:04:56.944Z,80.07
2019-05-17T02:07:23.718Z,80.02
2019-05-17T02:09:50.660Z,80.82
2019-05-17T02:12:17.645Z,80.22
2019-05-17T02:14:46.754Z,80.10
2019-05-17T02:17:17.285Z,80.53
2019-05-17T02:19:43.467Z,80.03
2019-05-17T02:22:10.133Z,80.13
2019-05-17T02:24:37.844Z,79.96
2019-05-17T02:27:04.640Z,80.60
2019-05-17T02:29:32.189Z,81.20
2019-05-17T02:31:59.528Z,79.83
2019-05-17T02:34:27.673Z,80.88
2019-05-17T02:36:54.946Z,80.69
2019-05-17T02:39:23.274Z,79.87
2019-05-17T02:41:53.334Z,79.91
2019-05-17T02:44:23.306Z,81.13
2019-05-17T02:46:49.010Z,81.03
2019-05-17T02:49:16.077Z,81.03
2019-05-17T02:51:43.217Z,81.69
2019-05-17T02:54:13.010Z,83.29
2019-05-17T02:56:38.499Z,82.24
2019-05-17T02:59:05.509Z,81.16
2019-05-17T03:01:33.152Z,82.21
2019-05-17T03:04:03.558Z,81.55
2019-05-17T03:06:32.703Z,81.64
2019-05-17T03:08:58.569Z,81.02
2019-05-17T03:11:25.643Z,81.20
2019-05-17T03:13:52.719Z,80.92
2019-05-17T03:16:23.405Z,81.31
2019-05-17T03:18:48.277Z,80.62
2019-05-17T03:21:15.755Z,80.75
2019-05-17T03:23:43.522Z,81.31
2019-05-17T03:26:13.313Z,80.33
2019-05-17T03:28:42.654Z,81.46
2019-05-17T03:31:17.021Z,81.86
2019-05-17T03:33:45.950Z,81.89
2019-05-17T03:36:16.871Z,80.58
2019-05-17T03:38:43.133Z,80.64
2019-05-17T03:41:22.973Z,80.80
2019-05-17T03:43:41.232Z,80.17
2019-05-17T03:46:07.212Z,80.52
2019-05-17T03:48:34.095Z,80.60
2019-05-17T03:51:02.660Z,80.97
2019-05-17T03:53:33.137Z,81.31
2019-05-17T03:56:02.643Z,81.68
2019-05-17T03:58:33.035Z,81.57
2019-05-17T04:00:58.986Z,82.39
2019-05-17T04:03:31.001Z,82.00
2019-05-17T04:05:59.326Z,81.65
2019-05-17T04:08:26.385Z,81.59
2019-05-17T04:10:55.735Z,81.86
2019-05-17T04:13:24.594Z,81.80
2019-05-17T04:15:53.651Z,80.99
2019-05-17T04:18:23.565Z,81.15
2019-05-17T04:20:52.771Z,81.82
2019-05-17T04:23:23.235Z,81.69
2019-05-17T04:25:53.372Z,81.59
2019-05-17T04:28:22.956Z,81.93
2019-05-17T04:30:52.785Z,81.86
2019-05-17T04:33:23.222Z,82.14
2019-05-17T04:35:53.793Z,81.67
2019-05-17T04:38:19.044Z,81.50
2019-05-17T04:40:45.603Z,81.46
2019-05-17T04:43:13.849Z,81.92
2019-05-17T04:45:42.618Z,81.74
2019-05-17T04:48:12.840Z,82.84
2019-05-17T04:50:38.334Z,81.76
2019-05-17T04:53:06.375Z,82.62
2019-05-17T04:55:34.114Z,82.85
2019-05-17T04:58:03.855Z,81.69
2019-05-17T05:00:34.160Z,82.33
2019-05-17T05:03:03.846Z,82.13
2019-05-17T05:05:32.780Z,81.87
2019-05-17T05:07:58.535Z,82.06
2019-05-17T05:10:26.342Z,82.49
2019-05-17T05:12:54.178Z,81.35
2019-05-17T05:15:26.559Z,82.85
2019-05-17T05:17:54.724Z,82.22
2019-05-17T05:20:22.122Z,81.73
2019-05-17T05:22:52.660Z,82.19
2019-05-17T05:25:21.570Z,82.26
2019-05-17T05:27:47.788Z,81.78
2019-05-17T05:30:14.657Z,81.68
2019-05-17T05:32:42.670Z,81.70
2019-05-17T05:35:12.379Z,80.80
2019-05-17T05:37:42.291Z,81.49
2019-05-17T05:40:12.324Z,80.79
2019-05-17T05:42:38.112Z,80.59
2019-05-17T05:45:05.278Z,79.55
2019-05-17T05:47:32.486Z,79.05
2019-05-17T05:50:01.723Z,77.92
2019-05-17T05:52:28.372Z,78.44
2019-05-17T05:54:54.987Z,79.07
2019-05-17T05:57:22.030Z,78.22
2019-05-17T05:59:51.668Z,77.87
2019-05-17T06:02:21.681Z,78.85
2019-05-17T06:04:48.941Z,79.24
2019-05-17T06:07:15.864Z,79.38
2019-05-17T06:09:43.707Z,78.71
2019-05-17T06:12:23.380Z,79.52
2019-05-17T06:14:41.716Z,79.20
2019-05-17T06:17:12.463Z,78.03
2019-05-17T06:19:39.065Z,76.84
2019-05-17T06:22:05.778Z,77.09
2019-05-17T06:24:32.918Z,76.22
2019-05-17T06:27:01.859Z,73.82
2019-05-17T06:29:32.591Z,75.02
2019-05-17T06:31:59.006Z,76.23
2019-05-17T06:34:25.996Z,75.80
2019-05-17T06:36:53.520Z,75.62
2019-05-17T06:39:22.446Z,74.98
2019-05-17T06:41:51.812Z,75.87
2019-05-17T06:44:21.479Z,75.71
2019-05-17T06:46:47.825Z,78.27
2019-05-17T06:49:14.490Z,78.35
2019-05-17T06:51:42.562Z,78.72
2019-05-17T06:54:12.263Z,78.03
2019-05-17T06:56:41.642Z,76.85
2019-05-17T06:59:08.041Z,78.64
2019-05-17T07:01:35.762Z,76.97
2019-05-17T07:04:02.554Z,77.01
2019-05-17T07:06:31.436Z,76.45
2019-05-17T07:08:58.055Z,78.71
2019-05-17T07:11:26.223Z,77.23
2019-05-17T07:13:52.787Z,75.60
2019-05-17T07:16:20.603Z,76.98
2019-05-17T07:18:49.402Z,76.84
2019-05-17T07:21:20.545Z,76.34
2019-05-17T07:23:49.866Z,76.68
2019-05-17T07:26:19.568Z,75.02
2019-05-17T07:28:49.774Z,76.21
2019-05-17T07:31:19.110Z,74.31
2019-05-17T07:33:46.693Z,74.57
2019-05-17T07:36:14.580Z,74.18
2019-05-17T07:38:41.326Z,74.77
2019-05-17T07:41:10.065Z,75.37
2019-05-17T07:43:36.823Z,73.73
2019-05-17T07:46:03.573Z,72.19
2019-05-17T07:48:32.486Z,71.22
2019-05-17T07:50:59.620Z,70.84
2019-05-17T07:53:27.600Z,70.91
2019-05-17T07:55:59.713Z,68.99
2019-05-17T07:58:26.923Z,68.16
2019-05-17T08:00:54.040Z,67.49
2019-05-17T08:03:24.278Z,68.20
2019-05-17T08:05:51.598Z,68.07
2019-05-17T08:08:20.838Z,69.01
2019-05-17T08:10:51.039Z,68.45
2019-05-17T08:13:29.908Z,68.22
2019-05-17T08:15:54.127Z,67.14
2019-05-17T08:18:21.022Z,66.85
2019-05-17T08:20:49.985Z,66.96
2019-05-17T08:23:16.657Z,68.18
2019-05-17T08:25:52.751Z,67.52
2019-05-17T08:28:12.220Z,66.47
2019-05-17T08:30:41.478Z,66.43
2019-05-17T08:33:11.317Z,65.39
2019-05-17T08:35:40.045Z,65.70
2019-05-17T08:38:09.978Z,66.31
2019-05-17T08:40:36.203Z,65.65
2019-05-17T08:43:05.812Z,64.70
2019-05-17T08:45:35.663Z,65.15
2019-05-17T08:48:04.315Z,65.47
2019-05-17T08:50:32.579Z,68.24
2019-05-17T08:53:00.535Z,66.58
2019-05-17T08:55:29.768Z,64.62
2019-05-17T08:57:56.176Z,64.55
2019-05-17T09:00:26.889Z,62.90
2019-05-17T09:02:54.882Z,63.67
2019-05-17T09:05:22.008Z,62.43
2019-05-17T09:07:49.336Z,62.94
2019-05-17T09:10:17.002Z,64.19
2019-05-17T09:12:44.590Z,63.57
2019-05-17T09:15:12.433Z,62.62
2019-05-17T09:17:41.208Z,64.14
2019-05-17T09:20:10.717Z,63.29
2019-05-17T09:22:39.634Z,63.51
2019-05-17T09:25:11.004Z,65.07
2019-05-17T09:27:36.593Z,62.42
2019-05-17T09:30:05.935Z,61.95
2019-05-17T09:32:34.187Z,62.00
2019-05-17T09:35:01.044Z,63.36
2019-05-17T09:37:30.335Z,61.37
2019-05-17T09:39:56.767Z,60.83
2019-05-17T09:42:23.459Z,61.62
2019-05-17T09:44:50.823Z,61.08
2019-05-17T09:47:17.693Z,59.32
2019-05-17T09:49:45.476Z,61.02
2019-05-17T09:52:14.665Z,60.24
2019-05-17T09:54:45.060Z,58.80
2019-05-17T09:57:10.863Z,59.23
2019-05-17T09:59:37.829Z,58.08
2019-05-17T10:02:06.950Z,58.04
2019-05-17T10:04:34.320Z,55.88
2019-05-17T10:07:01.866Z,54.78
2019-05-17T10:09:28.752Z,54.69
2019-05-17T10:11:56.633Z,55.65
2019-05-17T10:14:27.683Z,56.36
2019-05-17T10:16:52.211Z,59.59
2019-05-17T10:19:23.392Z,58.90
2019-05-17T10:21:50.211Z,59.94
2019-05-17T10:24:17.024Z,60.21
2019-05-17T10:26:43.953Z,59.79
2019-05-17T10:29:10.725Z,59.42
2019-05-17T10:31:39.712Z,60.72
2019-05-17T10:34:09.455Z,60.39
2019-05-17T10:36:40.298Z,58.34
2019-05-17T10:39:09.779Z,57.41
2019-05-17T10:42:32.328Z,57.61
2019-05-17T10:45:00.305Z,56.88
2019-05-17T10:47:27.265Z,57.51
2019-05-17T10:49:54.126Z,58.63
2019-05-17T10:52:21.398Z,57.27
2019-05-17T10:54:49.773Z,55.89
2019-05-17T10:57:16.577Z,54.62
2019-05-17T10:59:43.452Z,54.97
2019-05-17T11:02:12.779Z,53.50
2019-05-17T11:04:40.279Z,54.45
2019-05-17T11:07:11.139Z,53.10
2019-05-17T11:09:40.242Z,53.96
2019-05-17T11:12:08.082Z,53.27
2019-05-17T11:14:50.298Z,53.78
2019-05-17T11:17:05.560Z,54.57
2019-05-17T11:19:32.250Z,55.19
2019-05-17T11:22:00.063Z,55.22
2019-05-17T11:24:26.762Z,55.95
2019-05-17T11:26:53.879Z,55.34
2019-05-17T11:29:22.721Z,54.99
2019-05-17T11:31:49.963Z,55.35
2019-05-17T11:34:16.930Z,54.71
2019-05-17T11:36:43.845Z,55.05
2019-05-17T11:39:11.539Z,53.24
2019-05-17T11:41:38.212Z,54.37
2019-05-17T11:44:05.388Z,55.00
2019-05-17T11:46:36.527Z,54.47
2019-05-17T11:49:02.819Z,57.20
2019-05-17T11:51:29.597Z,55.23
2019-05-17T11:53:57.324Z,54.14
2019-05-17T11:56:24.111Z,55.23
2019-05-17T11:58:50.910Z,54.73
2019-05-17T12:01:18.263Z,54.32
2019-05-17T12:03:45.071Z,53.70
2019-05-17T12:06:11.954Z,54.83
2019-05-17T12:08:38.769Z,57.23
2019-05-17T12:11:06.847Z,57.17
2019-05-17T12:13:35.698Z,55.84
2019-05-17T12:16:04.030Z,56.38
2019-05-17T12:18:31.025Z,54.78
2019-05-17T12:20:59.057Z,55.06
2019-05-17T12:23:25.805Z,51.25
2019-05-17T12:25:53.550Z,52.72
2019-05-17T12:28:21.603Z,52.41
2019-05-17T12:30:48.389Z,53.65
2019-05-17T12:33:16.122Z,54.59
2019-05-17T12:35:42.981Z,53.94
2019-05-17T12:38:09.985Z,53.56
2019-05-17T12:40:37.870Z,52.88
2019-05-17T12:43:04.643Z,52.99
2019-05-17T12:45:31.803Z,54.58
2019-05-17T12:47:58.865Z,51.84
2019-05-17T12:50:25.938Z,51.47
2019-05-17T12:52:53.682Z,50.46
2019-05-17T12:55:20.772Z,49.40
2019-05-17T12:58:43.933Z,49.69
2019-05-17T13:01:11.575Z,51.07
2019-05-17T13:03:39.669Z,53.07
2019-05-17T13:06:06.495Z,53.37
2019-05-17T13:08:34.122Z,54.76
2019-05-17T13:11:01.724Z,54.59
2019-05-17T13:13:28.930Z,55.36
2019-05-17T13:15:55.754Z,54.16
2019-05-17T13:18:23.472Z,54.42
2019-05-17T13:20:50.637Z,54.66
2019-05-17T13:23:19.563Z,53.40
2019-05-17T13:25:48.761Z,52.95
2019-05-17T13:28:15.927Z,53.01
2019-05-17T13:30:43.647Z,52.60
2019-05-17T13:33:10.740Z,52.89
2019-05-17T13:35:38.793Z,52.88
2019-05-17T13:38:05.483Z,53.90
2019-05-17T13:40:39.287Z,54.22
2019-05-17T13:43:01.019Z,55.15
2019-05-17T13:45:27.940Z,55.83
2019-05-17T13:47:55.785Z,56.43
2019-05-17T13:50:23.185Z,56.48
2019-05-17T13:52:50.327Z,57.02
2019-05-17T13:55:20.859Z,57.99
2019-05-17T13:57:48.648Z,59.44
2019-05-17T14:00:18.982Z,59.54
2019-05-17T14:02:46.916Z,59.50
2019-05-17T14:05:14.317Z,58.78
2019-05-17T14:07:41.132Z,59.49
2019-05-17T14:10:24.484Z,60.23
2019-05-17T14:12:39.851Z,60.29
2019-05-17T14:15:08.434Z,60.58
2019-05-17T14:17:35.223Z,60.80
2019-05-17T14:20:04.023Z,61.59
2019-05-17T14:22:31.065Z,62.89
2019-05-17T14:24:58.808Z,64.15
2019-05-17T14:27:26.129Z,64.33
2019-05-17T14:29:52.798Z,64.42
2019-05-17T14:32:20.584Z,63.55
2019-05-17T14:34:49.781Z,64.60
2019-05-17T14:37:16.688Z,62.62
2019-05-17T14:39:43.290Z,63.34
2019-05-17T14:42:10.720Z,62.87
2019-05-17T14:44:38.882Z,64.46
2019-05-17T14:47:05.882Z,63.74
2019-05-17T14:49:32.687Z,60.73
2019-05-17T14:51:59.743Z,59.46
2019-05-17T14:54:28.515Z,59.27
2019-05-17T14:56:56.191Z,59.65
2019-05-17T14:59:22.951Z,58.32
2019-05-17T15:01:50.874Z,59.67
2019-05-17T15:04:20.181Z,56.98
2019-05-17T15:06:47.890Z,58.24
2019-05-17T15:09:14.694Z,56.86
2019-05-17T15:12:38.575Z,56.25
2019-05-17T15:15:06.950Z,56.28
2019-05-17T15:17:35.188Z,58.43
2019-05-17T15:20:05.455Z,59.43
2019-05-17T15:22:33.173Z,57.79
2019-05-17T15:25:01.374Z,60.04
2019-05-17T15:27:29.659Z,60.74
2019-05-17T15:29:56.437Z,57.68
2019-05-17T15:32:23.580Z,56.00
2019-05-17T15:34:51.484Z,54.30
2019-05-17T15:37:18.469Z,54.78
2019-05-17T15:39:45.080Z,56.59
2019-05-17T15:42:12.876Z,56.27
2019-05-17T15:44:39.578Z,55.34
2019-05-17T15:47:08.354Z,53.86
2019-05-17T15:49:35.669Z,53.76
2019-05-17T15:52:02.756Z,52.02
2019-05-17T15:54:29.357Z,51.81
2019-05-17T15:56:55.998Z,50.82
2019-05-17T15:59:22.807Z,51.71
2019-05-17T16:01:49.591Z,51.51
2019-05-17T16:04:16.793Z,51.52
2019-05-17T16:06:46.083Z,50.65
2019-05-17T16:09:12.795Z,52.84
2019-05-17T16:11:39.669Z,54.17
2019-05-17T16:14:06.565Z,52.10
2019-05-17T16:16:33.632Z,54.84
2019-05-17T16:19:01.586Z,54.40
2019-05-17T16:21:28.361Z,53.03
2019-05-17T16:23:56.347Z,54.20
2019-05-17T16:26:23.993Z,54.30
2019-05-17T16:28:51.085Z,54.34
2019-05-17T16:31:18.238Z,54.41
2019-05-17T16:33:45.508Z,56.37
2019-05-17T16:36:13.374Z,53.60
2019-05-17T16:38:39.989Z,56.50
2019-05-17T16:41:15.400Z,56.58
2019-05-17T16:43:42.347Z,54.99
2019-05-17T16:46:09.974Z,55.51
2019-05-17T16:48:37.005Z,55.33
2019-05-17T16:51:04.253Z,55.35
2019-05-17T16:53:32.236Z,57.68
2019-05-17T16:55:59.227Z,56.41
2019-05-17T16:58:25.998Z,59.55
2019-05-17T17:00:57.955Z,60.15
2019-05-17T17:03:24.776Z,59.41
2019-05-17T17:05:51.556Z,61.82
2019-05-17T17:08:18.559Z,61.57
2019-05-17T17:10:45.647Z,60.19
2019-05-17T17:13:13.746Z,60.99
2019-05-17T17:15:43.505Z,63.50
2019-05-17T17:18:10.424Z,64.08
2019-05-17T17:20:37.705Z,64.16
2019-05-17T17:23:04.536Z,64.76
2019-05-17T17:25:31.839Z,64.49
2019-05-17T17:28:00.499Z,64.54
2019-05-17T17:30:29.941Z,66.23
2019-05-17T17:32:57.890Z,66.96
2019-05-17T17:35:25.754Z,68.15
2019-05-17T17:37:52.448Z,67.97
2019-05-17T17:40:22.092Z,68.37
2019-05-17T17:42:49.205Z,67.18
2019-05-17T17:45:20.547Z,68.22
2019-05-17T17:47:49.692Z,67.70
2019-05-17T17:50:17.059Z,67.43
2019-05-17T17:52:49.525Z,69.27
2019-05-17T17:55:17.800Z,69.37
2019-05-17T17:57:44.904Z,68.93
2019-05-17T18:00:13.220Z,69.08
2019-05-17T18:02:41.180Z,69.83
2019-05-17T18:05:08.389Z,70.94
2019-05-17T18:07:35.293Z,70.49
2019-05-17T18:10:05.520Z,71.54
2019-05-17T18:12:34.188Z,71.78
2019-05-17T18:15:06.319Z,71.64
2019-05-17T18:17:39.064Z,71.60
2019-05-17T18:20:00.249Z,72.24
2019-05-17T18:22:28.087Z,73.60
2019-05-17T18:24:54.830Z,73.22
2019-05-17T18:27:23.004Z,73.22
2019-05-17T18:29:49.753Z,73.92
2019-05-17T18:32:16.515Z,72.81
2019-05-17T18:34:43.609Z,73.04
2019-05-17T18:37:12.957Z,72.79
2019-05-17T18:39:43.061Z,73.97
2019-05-17T18:42:09.905Z,74.44
2019-05-17T18:44:36.981Z,74.72
2019-05-17T18:47:09.427Z,75.31
2019-05-17T18:49:37.275Z,75.44
2019-05-17T18:52:05.487Z,74.45
2019-05-17T18:54:33.234Z,74.44
2019-05-17T18:57:00.054Z,74.99
2019-05-17T18:59:27.087Z,75.05
2019-05-17T19:01:53.875Z,75.56
2019-05-17T19:04:20.931Z,75.81
2019-05-17T19:06:48.589Z,75.29
2019-05-17T19:09:15.618Z,75.45
2019-05-17T19:11:42.501Z,76.09
2019-05-17T19:14:09.179Z,75.69
2019-05-17T19:17:33.601Z,76.54
2019-05-17T19:20:00.351Z,76.93
2019-05-17T19:22:27.516Z,76.49
2019-05-17T19:24:55.560Z,76.78
2019-05-17T19:27:23.412Z,75.97
2019-05-17T19:29:50.453Z,76.89
2019-05-17T19:32:18.538Z,76.80
2019-05-17T19:34:46.253Z,77.52
2019-05-17T19:37:14.042Z,77.02
2019-05-17T19:39:41.391Z,76.73
2019-05-17T19:42:08.647Z,77.16
2019-05-17T19:44:36.036Z,77.64
2019-05-17T19:47:04.484Z,78.39
2019-05-17T19:49:31.381Z,77.77
2019-05-17T19:51:58.116Z,76.96
2019-05-17T19:54:24.983Z,77.37
2019-05-17T19:56:54.121Z,77.14
2019-05-17T19:59:25.088Z,76.27
2019-05-17T20:02:06.509Z,75.97
2019-05-17T20:04:55.073Z,76.72
2019-05-17T20:07:38.606Z,77.76
2019-05-17T20:10:19.613Z,79.41
2019-05-17T20:13:00.619Z,79.67
2019-05-17T20:15:43.150Z,77.73
2019-05-17T20:18:28.509Z,77.27
2019-05-17T20:20:57.705Z,76.71
2019-05-17T20:23:25.551Z,75.88
2019-05-17T20:25:54.066Z,77.92
2019-05-17T20:28:20.938Z,78.69
2019-05-17T20:30:48.689Z,78.45
2019-05-17T20:33:16.023Z,78.57
2019-05-17T20:35:44.092Z,78.40
2019-05-17T20:38:11.190Z,77.79
2019-05-17T20:40:39.185Z,78.00
2019-05-17T20:43:07.811Z,78.42
2019-05-17T20:45:35.205Z,78.56
2019-05-17T20:48:01.996Z,78.78
2019-05-17T20:50:28.893Z,77.71
2019-05-17T20:52:55.635Z,77.61
2019-05-17T20:55:22.370Z,77.49
2019-05-17T20:57:49.011Z,77.78
2019-05-17T21:01:13.503Z,77.74
2019-05-17T21:03:40.630Z,78.09
2019-05-17T21:06:07.608Z,79.24
2019-05-17T21:08:45.540Z,80.07
2019-05-17T21:11:04.652Z,78.58
2019-05-17T21:13:31.966Z,78.66
2019-05-17T21:15:59.695Z,78.42
2019-05-17T21:18:28.010Z,79.94
2019-05-17T21:20:54.592Z,79.29
2019-05-17T21:23:24.013Z,79.10
2019-05-17T21:25:51.074Z,79.21
2019-05-17T21:28:19.083Z,78.83
2019-05-17T21:30:49.085Z,78.51
2019-05-17T21:33:16.738Z,78.74
2019-05-17T21:35:45.438Z,78.49
2019-05-17T21:38:12.336Z,78.00
2019-05-17T21:40:39.121Z,77.49
2019-05-17T21:43:05.848Z,77.98
2019-05-17T21:45:32.517Z,78.36
2019-05-17T21:48:01.435Z,77.05
2019-05-17T21:50:33.132Z,78.34
2019-05-17T21:52:59.728Z,79.00
2019-05-17T21:55:26.545Z,79.09
2019-05-17T21:57:53.371Z,78.75
2019-05-17T22:00:27.894Z,78.56
2019-05-17T22:02:56.439Z,79.41
2019-05-17T22:05:23.107Z,79.53
2019-05-17T22:07:49.729Z,78.48
2019-05-17T22:10:16.581Z,78.17
2019-05-17T22:12:46.900Z,78.73
2019-05-17T22:15:16.029Z,78.50
2019-05-17T22:17:42.714Z,78.37
2019-05-17T22:20:09.796Z,77.59
2019-05-17T22:22:36.748Z,77.86
2019-05-17T22:25:06.133Z,78.10
2019-05-17T22:27:33.994Z,78.73
2019-05-17T22:30:00.977Z,77.90
2019-05-17T22:32:28.007Z,78.54
2019-05-17T22:34:54.684Z,79.21
2019-05-17T22:37:21.533Z,80.39
2019-05-17T22:39:49.416Z,81.11
2019-05-17T22:42:16.572Z,78.75
2019-05-17T22:44:43.499Z,78.88
2019-05-17T22:47:10.312Z,78.40
2019-05-17T22:49:36.929Z,78.85
2019-05-17T22:52:03.773Z,78.75
2019-05-17T22:54:31.142Z,79.66
2019-05-17T22:56:57.943Z,79.28
2019-05-17T22:59:24.935Z,79.54
2019-05-17T23:01:52.778Z,80.32
2019-05-17T23:04:19.872Z,80.38
2019-05-17T23:06:46.594Z,80.30
2019-05-17T23:09:13.227Z,79.86
2019-05-17T23:11:39.949Z,80.05
2019-05-17T23:14:06.774Z,80.11
2019-05-17T23:16:50.248Z,79.76
2019-05-17T23:19:05.881Z,80.02
2019-05-17T23:21:33.225Z,80.01
2019-05-17T23:23:59.837Z,79.45
2019-05-17T23:26:26.634Z,79.28
2019-05-17T23:28:54.572Z,79.72
2019-05-17T23:31:21.574Z,79.53
2019-05-17T23:33:48.429Z,79.68
2019-05-17T23:36:15.546Z,79.03
2019-05-17T23:38:43.373Z,79.50
2019-05-17T23:41:11.548Z,78.64
2019-05-17T23:43:39.630Z,77.64
2019-05-17T23:46:06.614Z,77.96
2019-05-17T23:48:33.425Z,78.25
2019-05-17T23:51:00.033Z,78.56
2019-05-17T23:53:27.173Z,78.76
2019-05-17T23:55:55.103Z,79.08
2019-05-17T23:58:21.694Z,79.11
